Time;durP1;ratioP1;P1;durP2;ratioP2;P2;SDS_P1;SDS_P2;PMS_P1;PMS_P2;Temp;Humidity;BMP_temperature;BMP_pressure;BME280_temperature;BME280_humidity;BME280_pressure;Samples;Min_cycle;Max_cycle;Signal;HPM_P1;HPM_P2
2022/08/30 00:01:09;;;;;;;21.02;5.65;;;;;;;25.19;100.00;99935.19;5050640;28;20033;-70
2022/08/30 00:03:39;;;;;;;27.90;6.22;;;;;;;24.94;100.00;99925.28;5049153;28;20143;-68
2022/08/30 00:06:06;;;;;;;27.42;5.82;;;;;;;24.50;100.00;99903.09;5050537;28;20025;-69
2022/08/30 00:08:33;;;;;;;16.80;5.53;;;;;;;24.66;100.00;99892.22;5050083;28;20545;-68
2022/08/30 00:11:00;;;;;;;19.35;5.78;;;;;;;25.01;100.00;99929.00;5049122;28;20178;-69
2022/08/30 00:13:26;;;;;;;28.17;6.30;;;;;;;24.60;100.00;99939.56;5043789;28;20060;-69
2022/08/30 00:15:51;;;;;;;25.13;6.20;;;;;;;24.48;100.00;99935.41;5042301;28;20139;-69
2022/08/30 00:18:18;;;;;;;32.38;5.95;;;;;;;24.60;100.00;99929.16;5030434;28;20030;-69
2022/08/30 00:20:45;;;;;;;30.73;6.15;;;;;;;24.69;100.00;99903.19;5029126;28;20120;-70
2022/08/30 00:23:11;;;;;;;28.92;5.85;;;;;;;24.42;100.00;99936.78;5029360;28;20073;-72
2022/08/30 00:25:37;;;;;;;20.80;5.25;;;;;;;24.54;100.00;99898.50;5029169;28;20041;-69
2022/08/30 00:28:03;;;;;;;21.08;5.55;;;;;;;24.77;100.00;99925.94;5030221;28;20443;-70
2022/08/30 00:30:29;;;;;;;27.90;6.10;;;;;;;24.52;100.00;99929.81;5030511;28;20423;-70
2022/08/30 00:32:55;;;;;;;29.20;6.00;;;;;;;24.33;100.00;99921.94;5030095;28;20038;-70
2022/08/30 00:35:21;;;;;;;25.80;6.05;;;;;;;24.28;100.00;99925.91;5030066;28;20053;-76
2022/08/30 00:37:47;;;;;;;30.30;6.22;;;;;;;24.40;100.00;99935.25;5030294;28;20030;-71
2022/08/30 00:40:18;;;;;;;20.95;5.72;;;;;;;24.77;100.00;99924.16;5030333;28;20052;-70
2022/08/30 00:42:44;;;;;;;18.40;5.72;;;;;;;24.41;100.00;99916.09;5029007;28;20026;-69
2022/08/30 00:45:25;;;;;;;26.10;6.00;;;;;;;24.06;100.00;99896.56;5030016;28;20529;-70
2022/08/30 00:47:51;;;;;;;24.75;5.90;;;;;;;23.90;100.00;99883.19;5030296;28;20045;-70
2022/08/30 00:50:20;;;;;;;25.30;5.70;;;;;;;24.30;100.00;99882.41;5028482;28;20040;-68
2022/08/30 00:52:49;;;;;;;30.20;5.93;;;;;;;23.84;100.00;99878.50;5029744;28;20026;-70
2022/08/30 00:55:17;;;;;;;29.35;6.10;;;;;;;24.77;100.00;99918.13;5029973;28;20033;-71
2022/08/30 00:57:45;;;;;;;23.83;5.70;;;;;;;24.55;100.00;99905.31;5030210;28;20034;-68
2022/08/30 01:00:13;;;;;;;25.25;5.95;;;;;;;24.27;100.00;99919.03;5030079;28;20029;-68
2022/08/30 01:02:39;;;;;;;24.08;6.10;;;;;;;24.29;100.00;99884.19;5028622;28;20029;-69
2022/08/30 01:05:07;;;;;;;24.77;5.97;;;;;;;24.01;100.00;99924.66;5029957;28;20062;-70
2022/08/30 01:07:33;;;;;;;23.23;5.50;;;;;;;24.13;100.00;99877.84;5030064;28;20044;-69
2022/08/30 01:10:00;;;;;;;28.48;5.93;;;;;;;24.09;100.00;99877.25;5029756;28;20565;-69
2022/08/30 01:12:28;;;;;;;22.33;6.00;;;;;;;24.41;100.00;99869.28;5029123;28;20415;-69
2022/08/30 01:14:55;;;;;;;28.95;6.03;;;;;;;24.08;100.00;99876.47;5029817;28;20026;-70
2022/08/30 01:17:20;;;;;;;19.45;6.00;;;;;;;23.89;100.00;99884.13;5028174;28;20458;-69
2022/08/30 01:19:59;;;;;;;25.48;5.60;;;;;;;23.68;100.00;99880.75;5028745;28;20053;-69
2022/08/30 01:22:49;;;;;;;21.45;6.28;;;;;;;24.00;100.00;99923.03;5028564;28;20033;-69
2022/08/30 01:25:22;;;;;;;19.83;6.25;;;;;;;24.17;100.00;99912.97;5039880;28;20028;-71
2022/08/30 01:27:54;;;;;;;27.75;7.18;;;;;;;23.73;100.00;99903.72;5053422;28;20487;-69
2022/08/30 01:30:22;;;;;;;20.60;6.65;;;;;;;23.50;100.00;99874.47;5053096;28;20464;-69
2022/08/30 01:32:51;;;;;;;27.02;7.50;;;;;;;23.60;100.00;99909.13;5053235;28;20079;-69
2022/08/30 01:35:19;;;;;;;29.23;7.88;;;;;;;23.15;100.00;99890.31;5052717;28;20051;-70
2022/08/30 01:37:45;;;;;;;31.73;9.77;;;;;;;22.99;100.00;99928.81;5052787;28;20025;-79
2022/08/30 01:40:16;;;;;;;30.58;9.38;;;;;;;22.71;100.00;99911.22;5052689;28;20048;-69
2022/08/30 01:42:41;;;;;;;31.20;8.27;;;;;;;23.28;100.00;99931.66;5053064;28;20025;-68
2022/08/30 01:45:08;;;;;;;28.02;8.18;;;;;;;22.74;100.00;99890.22;5052720;28;20040;-69
2022/08/30 01:47:34;;;;;;;30.48;7.72;;;;;;;22.89;100.00;99870.03;5052811;28;20092;-69
2022/08/30 01:50:00;;;;;;;30.15;8.07;;;;;;;22.94;100.00;99883.44;5052495;28;20068;-69
2022/08/30 01:52:26;;;;;;;30.27;7.70;;;;;;;22.95;100.00;99870.38;5052510;28;20125;-69
2022/08/30 01:54:52;;;;;;;33.95;7.72;;;;;;;22.89;100.00;99876.03;5051573;28;20040;-69
2022/08/30 01:57:21;;;;;;;27.27;8.13;;;;;;;23.03;100.00;99925.03;5052655;28;20032;-70
2022/08/30 01:59:49;;;;;;;19.30;6.80;;;;;;;23.45;100.00;99930.31;5052728;28;20057;-71
2022/08/30 02:02:18;;;;;;;27.35;7.85;;;;;;;22.95;100.00;99930.00;5052712;28;20060;-70
2022/08/30 02:04:46;;;;;;;25.13;7.35;;;;;;;23.31;100.00;99938.38;5052515;28;20116;-70
2022/08/30 02:07:11;;;;;;;24.50;7.35;;;;;;;23.13;100.00;99925.94;5052807;28;20029;-69
2022/08/30 02:09:38;;;;;;;26.00;7.68;;;;;;;23.22;100.00;99925.19;5052132;28;20090;-69
2022/08/30 02:12:06;;;;;;;28.83;7.20;;;;;;;23.45;100.00;99920.78;5052553;28;20047;-69
2022/08/30 02:14:32;;;;;;;24.60;7.78;;;;;;;23.01;100.00;99889.78;5046537;28;20085;-69
2022/08/30 02:16:57;;;;;;;26.67;7.30;;;;;;;23.12;100.00;99926.88;5036181;28;20037;-69
2022/08/30 02:19:23;;;;;;;25.83;7.60;;;;;;;22.88;100.00;99878.72;5032311;28;20040;-69
2022/08/30 02:21:48;;;;;;;28.55;7.97;;;;;;;23.02;100.00;99938.09;5034406;28;20033;-70
2022/08/30 02:24:14;;;;;;;27.98;7.97;;;;;;;22.60;100.00;99887.09;5046296;28;20075;-69
2022/08/30 02:26:41;;;;;;;32.10;9.18;;;;;;;22.72;100.00;99863.59;5052057;28;20028;-69
2022/08/30 02:29:07;;;;;;;26.27;8.80;;;;;;;22.77;100.00;99897.75;5050710;28;20033;-69
2022/08/30 02:31:33;;;;;;;26.65;9.35;;;;;;;22.67;100.00;99880.44;5051210;28;20025;-69
2022/08/30 02:33:58;;;;;;;35.20;9.65;;;;;;;23.17;100.00;99944.69;5052175;28;20450;-68
2022/08/30 02:36:24;;;;;;;25.83;9.38;;;;;;;22.86;100.00;99901.38;5051426;28;20032;-69
2022/08/30 02:38:50;;;;;;;30.90;10.02;;;;;;;22.84;100.00;99892.91;5051722;28;20057;-70
2022/08/30 02:41:17;;;;;;;27.58;7.97;;;;;;;22.76;100.00;99945.34;5051725;28;20025;-68
2022/08/30 02:43:42;;;;;;;31.98;7.82;;;;;;;22.70;100.00;99934.66;5051132;28;20076;-70
2022/08/30 02:46:08;;;;;;;22.45;7.38;;;;;;;22.61;100.00;99940.56;5051609;28;20076;-72
2022/08/30 02:48:33;;;;;;;24.80;7.53;;;;;;;22.34;100.00;99931.34;5051524;28;20033;-69
2022/08/30 02:51:07;;;;;;;26.45;7.85;;;;;;;22.64;100.00;99932.56;5052160;28;20043;-70
2022/08/30 02:53:33;;;;;;;24.80;7.55;;;;;;;22.08;100.00;99917.00;5051919;28;20460;-70
2022/08/30 02:55:58;;;;;;;26.92;7.50;;;;;;;22.90;100.00;99934.72;5051753;28;20036;-71
2022/08/30 02:58:24;;;;;;;28.13;7.68;;;;;;;22.67;100.00;99932.31;5051795;28;20543;-69
2022/08/30 03:00:49;;;;;;;26.13;7.18;;;;;;;22.77;100.00;99915.06;5049354;28;20024;-68
2022/08/30 03:03:15;;;;;;;27.35;7.35;;;;;;;22.83;100.00;99899.88;5051680;28;20036;-69
2022/08/30 03:05:41;;;;;;;28.02;8.00;;;;;;;22.70;100.00;99942.44;5051250;28;20036;-69
2022/08/30 03:08:08;;;;;;;26.00;7.43;;;;;;;23.00;100.00;99940.00;5042852;28;20041;-68
2022/08/30 03:10:33;;;;;;;24.77;7.57;;;;;;;22.79;100.00;99908.00;5051642;28;20044;-71
2022/08/30 03:12:59;;;;;;;22.77;7.00;;;;;;;24.87;100.00;99914.59;5051180;28;20120;-72
2022/08/30 03:15:25;;;;;;;25.40;7.53;;;;;;;23.00;100.00;99906.28;5046551;28;20409;-70
2022/08/30 03:17:52;;;;;;;28.65;7.38;;;;;;;23.55;100.00;99934.63;5034762;28;20041;-69
2022/08/30 03:20:19;;;;;;;24.55;6.95;;;;;;;23.89;100.00;99936.06;5050215;28;20557;-69
2022/08/30 03:22:44;;;;;;;27.33;7.53;;;;;;;22.65;100.00;99875.41;5051355;28;20052;-71
2022/08/30 03:25:10;;;;;;;25.30;8.10;;;;;;;23.25;100.00;99950.88;5050177;28;20480;-70
2022/08/30 03:27:36;;;;;;;21.98;7.53;;;;;;;22.98;100.00;99953.09;5046164;28;20194;-70
2022/08/30 03:30:02;;;;;;;34.63;10.70;;;;;;;22.67;100.00;99958.22;5050812;28;20504;-72
2022/08/30 03:32:28;;;;;;;32.97;9.65;;;;;;;22.57;100.00;99931.34;5032936;28;20037;-71
2022/08/30 03:34:53;;;;;;;29.10;8.48;;;;;;;22.31;100.00;99964.44;5030832;28;20051;-71
2022/08/30 03:37:19;;;;;;;33.35;8.40;;;;;;;22.66;100.00;99956.59;5031097;28;20030;-71
2022/08/30 03:39:44;;;;;;;24.80;8.18;;;;;;;22.19;100.00;99924.78;5031075;28;20376;-70
2022/08/30 03:42:10;;;;;;;26.20;8.10;;;;;;;22.69;100.00;99946.81;5031097;28;20053;-70
2022/08/30 03:44:36;;;;;;;28.30;8.60;;;;;;;22.21;100.00;99959.16;5029929;28;20456;-72
2022/08/30 03:47:02;;;;;;;21.60;7.22;;;;;;;24.05;100.00;99928.66;5028800;28;20050;-72
2022/08/30 03:49:28;;;;;;;26.42;9.15;;;;;;;22.70;100.00;99952.81;5029395;28;20037;-71
2022/08/30 03:51:53;;;;;;;28.42;8.32;;;;;;;22.68;100.00;99976.25;5029501;28;20087;-74
2022/08/30 03:54:19;;;;;;;29.33;8.40;;;;;;;22.68;100.00;99945.13;5030447;28;20038;-69
2022/08/30 03:56:44;;;;;;;29.52;8.95;;;;;;;23.23;100.00;99986.50;5029812;28;20408;-69
2022/08/30 03:59:10;;;;;;;21.13;8.25;;;;;;;23.11;100.00;99986.69;5030818;28;20037;-70
2022/08/30 04:01:35;;;;;;;34.47;8.50;;;;;;;22.51;100.00;99945.59;5028565;28;20129;-70
2022/08/30 04:04:22;;;;;;;26.75;8.23;;;;;;;22.27;100.00;99996.72;5028837;28;20037;-69
2022/08/30 04:06:48;;;;;;;28.40;7.85;;;;;;;22.16;100.00;100000.13;5029044;28;20112;-70
2022/08/30 04:09:13;;;;;;;26.70;7.20;;;;;;;21.72;100.00;99949.97;5030365;28;20133;-70
2022/08/30 04:11:39;;;;;;;23.88;7.55;;;;;;;22.15;100.00;100001.06;5036711;28;20083;-69
2022/08/30 04:14:05;;;;;;;24.42;7.30;;;;;;;22.59;100.00;99999.47;5050123;28;20029;-68
2022/08/30 04:16:30;;;;;;;22.83;7.47;;;;;;;22.21;100.00;100002.34;5050373;28;20025;-69
2022/08/30 04:18:55;;;;;;;24.08;8.02;;;;;;;22.36;100.00;99919.09;5048526;28;20098;-73
2022/08/30 04:21:21;;;;;;;28.15;6.90;;;;;;;22.41;100.00;99994.75;5049580;28;20032;-69
2022/08/30 04:23:46;;;;;;;19.05;7.40;;;;;;;22.30;100.00;100001.69;5049996;28;20033;-69
2022/08/30 04:26:12;;;;;;;21.25;6.80;;;;;;;22.60;100.00;100004.53;5050186;28;20044;-70
2022/08/30 04:28:38;;;;;;;26.33;7.75;;;;;;;24.27;100.00;99990.06;5048939;28;20040;-68
2022/08/30 04:31:14;;;;;;;27.27;8.50;;;;;;;24.50;100.00;100011.50;5049000;28;20437;-71
2022/08/30 04:33:40;;;;;;;32.35;8.10;;;;;;;23.79;100.00;99991.53;5046536;28;20071;-71
2022/08/30 04:36:08;;;;;;;29.42;8.32;;;;;;;23.17;100.00;100010.38;5049910;28;20065;-69
2022/08/30 04:38:35;;;;;;;20.30;7.50;;;;;;;23.00;100.00;100012.63;5048508;28;20029;-67
2022/08/30 04:41:02;;;;;;;30.38;8.23;;;;;;;23.20;100.00;100014.47;5041995;28;20037;-68
2022/08/30 04:43:27;;;;;;;31.02;7.95;;;;;;;23.21;100.00;99979.81;5029279;28;20056;-75
2022/08/30 04:45:53;;;;;;;28.10;8.63;;;;;;;22.96;100.00;100012.03;5029274;28;20050;-69
2022/08/30 04:48:21;;;;;;;20.63;7.93;;;;;;;23.38;100.00;100004.44;5028360;28;20125;-69
2022/08/30 04:50:47;;;;;;;30.95;8.63;;;;;;;23.58;100.00;100001.88;5029981;28;20462;-69
2022/08/30 04:53:13;;;;;;;34.05;8.70;;;;;;;23.40;100.00;99998.16;5029804;28;20124;-69
2022/08/30 04:55:40;;;;;;;33.38;8.75;;;;;;;23.60;100.00;100014.72;5029129;28;20036;-69
2022/08/30 04:58:06;;;;;;;32.55;8.48;;;;;;;23.57;100.00;100008.00;5030920;28;20037;-69
2022/08/30 05:00:32;;;;;;;32.17;8.40;;;;;;;23.92;100.00;100003.38;5032516;28;20033;-68
2022/08/30 05:02:57;;;;;;;32.25;7.95;;;;;;;23.48;100.00;99975.03;5033465;28;20082;-69
2022/08/30 05:05:38;;;;;;;36.00;8.65;;;;;;;24.18;100.00;100003.00;5033593;28;20038;-69
2022/08/30 05:08:05;;;;;;;32.00;8.63;;;;;;;23.76;100.00;99961.44;5033362;28;20037;-69
2022/08/30 05:10:30;;;;;;;36.22;8.10;;;;;;;23.90;100.00;99929.94;5033587;28;20303;-70
2022/08/30 05:12:56;;;;;;;38.83;8.13;;;;;;;24.43;100.00;99999.97;5033538;28;20480;-69
2022/08/30 05:15:22;;;;;;;41.30;8.30;;;;;;;24.55;100.00;100007.56;5032280;28;20040;-68
2022/08/30 05:17:48;;;;;;;32.97;9.52;;;;;;;24.43;100.00;100018.16;5032157;28;20029;-70
2022/08/30 05:20:14;;;;;;;35.28;8.93;;;;;;;24.48;100.00;99979.63;5033432;28;20056;-68
2022/08/30 05:22:48;;;;;;;41.58;10.27;;;;;;;24.62;100.00;100013.06;5032295;28;20026;-68
2022/08/30 05:25:19;;;;;;;34.20;10.68;;;;;;;24.90;100.00;99992.38;5033162;28;20457;-69
2022/08/30 05:27:45;;;;;;;35.53;10.63;;;;;;;24.94;100.00;99982.50;5033373;28;20045;-69
2022/08/30 05:30:12;;;;;;;52.30;9.30;;;;;;;25.22;100.00;99971.31;5033573;28;20061;-68
2022/08/30 05:32:38;;;;;;;48.90;9.05;;;;;;;25.15;100.00;99998.03;5033431;28;20029;-68
2022/08/30 05:35:05;;;;;;;58.63;9.30;;;;;;;25.32;100.00;99979.97;5031852;28;20040;-68
2022/08/30 05:37:31;;;;;;;59.88;8.90;;;;;;;25.63;100.00;100014.56;5033146;28;20029;-68
2022/08/30 05:39:56;;;;;;;57.47;9.43;;;;;;;25.73;100.00;99997.94;5033399;28;20480;-68
2022/08/30 05:42:22;;;;;;;43.20;8.82;;;;;;;25.82;100.00;100032.78;5033128;28;20030;-68
2022/08/30 05:44:52;;;;;;;30.92;8.13;;;;;;;26.06;100.00;100028.00;5032771;28;20029;-69
2022/08/30 05:47:18;;;;;;;34.33;8.00;;;;;;;25.70;100.00;99998.22;5033396;28;20049;-68
2022/08/30 05:49:43;;;;;;;32.50;7.63;;;;;;;26.05;100.00;99987.19;5032679;28;20186;-68
2022/08/30 05:52:09;;;;;;;28.23;7.00;;;;;;;26.14;100.00;99996.00;5032996;28;20029;-74
2022/08/30 05:54:34;;;;;;;24.80;6.80;;;;;;;26.39;100.00;100021.44;5032716;28;20036;-69
2022/08/30 05:56:59;;;;;;;26.70;6.75;;;;;;;26.77;100.00;100021.31;5032997;28;20029;-68
2022/08/30 05:59:25;;;;;;;29.52;7.50;;;;;;;26.45;100.00;100026.09;5033027;28;20033;-69
2022/08/30 06:01:55;;;;;;;27.85;6.97;;;;;;;26.85;100.00;100029.25;5033043;28;20106;-68
2022/08/30 06:04:20;;;;;;;31.30;7.18;;;;;;;26.83;100.00;99999.88;5032782;28;20053;-69
2022/08/30 06:06:46;;;;;;;30.08;7.30;;;;;;;27.38;100.00;100037.19;5032785;28;20484;-69
2022/08/30 06:09:13;;;;;;;28.38;7.25;;;;;;;27.50;100.00;100029.97;5032145;28;20030;-68
2022/08/30 06:11:39;;;;;;;26.27;7.40;;;;;;;27.28;100.00;100029.41;5032728;28;20048;-69
2022/08/30 06:14:05;;;;;;;20.08;6.60;;;;;;;27.62;100.00;100039.22;5031412;28;20026;-69
2022/08/30 06:16:31;;;;;;;27.92;7.28;;;;;;;27.62;100.00;100006.06;5032710;28;20025;-71
2022/08/30 06:18:58;;;;;;;25.02;6.95;;;;;;;27.86;100.00;100042.03;5031343;28;20030;-70
2022/08/30 06:21:30;;;;;;;20.83;6.93;;;;;;;27.46;100.00;100045.13;5032413;28;20037;-71
2022/08/30 06:23:56;;;;;;;28.77;7.22;;;;;;;27.73;100.00;99992.75;5031287;28;20491;-71
2022/08/30 06:26:22;;;;;;;27.75;7.45;;;;;;;27.78;100.00;100028.91;5032362;28;20036;-70
2022/08/30 06:28:49;;;;;;;23.80;7.03;;;;;;;28.13;100.00;100002.72;5031317;28;20029;-70
2022/08/30 06:31:17;;;;;;;27.75;6.75;;;;;;;28.56;100.00;100051.56;5032236;28;20138;-69
2022/08/30 06:33:43;;;;;;;29.17;6.95;;;;;;;28.66;100.00;100060.94;5031021;28;20483;-69
2022/08/30 06:36:12;;;;;;;32.47;7.35;;;;;;;29.03;100.00;100031.78;5031973;28;20018;-69
2022/08/30 06:38:38;;;;;;;26.38;7.45;;;;;;;28.99;99.64;100059.28;5032032;28;20052;-70
2022/08/30 06:41:10;;;;;;;27.42;7.20;;;;;;;28.64;100.00;100014.97;5031961;28;20499;-69
2022/08/30 06:43:36;;;;;;;19.85;7.22;;;;;;;29.77;93.92;100060.66;5032134;28;20112;-73
2022/08/30 06:46:09;;;;;;;24.30;7.10;;;;;;;29.41;94.16;100026.03;5031904;28;20128;-69
2022/08/30 06:48:35;;;;;;;22.13;7.32;;;;;;;29.62;96.70;100055.19;5031710;28;20083;-70
2022/08/30 06:51:01;;;;;;;18.27;6.68;;;;;;;30.34;92.61;100051.78;5032069;28;20041;-72
2022/08/30 06:53:28;;;;;;;19.05;7.05;;;;;;;30.16;92.68;100068.66;5030554;28;20426;-69
2022/08/30 06:56:08;;;;;;;17.35;6.80;;;;;;;29.57;90.67;100027.84;5030635;28;20038;-69
2022/08/30 06:58:36;;;;;;;18.33;6.80;;;;;;;30.29;89.25;100055.88;5030530;28;20091;-68
2022/08/30 07:01:03;;;;;;;13.77;7.07;;;;;;;30.49;89.00;100063.22;5031531;28;20029;-69
2022/08/30 07:03:28;;;;;;;20.85;7.95;;;;;;;30.12;88.65;100064.72;5031757;28;20026;-69
2022/08/30 07:05:55;;;;;;;20.95;7.20;;;;;;;30.53;84.87;100035.63;5031815;28;20032;-69
2022/08/30 07:08:22;;;;;;;13.68;6.38;;;;;;;30.74;84.43;100045.59;5031338;28;20458;-69
2022/08/30 07:10:48;;;;;;;26.65;7.43;;;;;;;30.37;87.59;100038.31;5030198;28;20025;-69
2022/08/30 07:13:14;;;;;;;16.95;6.95;;;;;;;30.30;83.74;100058.34;5029891;28;20039;-69
2022/08/30 07:15:41;;;;;;;15.82;7.10;;;;;;;30.83;79.67;100056.84;5031100;28;20056;-69
2022/08/30 07:20:52;;;;;;;20.83;7.38;;;;;;;31.22;79.88;100057.69;5030860;28;20036;-68
2022/08/30 07:23:17;;;;;;;17.52;7.07;;;;;;;30.70;78.22;100058.22;5031251;28;20034;-71
2022/08/30 07:25:43;;;;;;;16.25;7.63;;;;;;;31.01;79.83;100016.25;5031566;28;20460;-68
2022/08/30 07:28:10;;;;;;;18.30;7.75;;;;;;;31.08;76.76;100059.22;5031173;28;20053;-69
2022/08/30 07:30:36;;;;;;;16.88;7.25;;;;;;;31.03;75.87;100035.28;5029959;28;20045;-68
2022/08/30 07:33:03;;;;;;;20.38;7.47;;;;;;;31.48;69.72;100024.84;5031344;28;20037;-68
2022/08/30 07:35:28;;;;;;;14.73;6.88;;;;;;;30.55;72.03;100030.22;5031067;28;20038;-68
2022/08/30 07:37:54;;;;;;;13.88;6.72;;;;;;;31.26;73.31;100051.09;5029837;28;20041;-69
2022/08/30 07:40:19;;;;;;;13.52;6.60;;;;;;;32.41;65.43;100055.13;5030796;28;20091;-68
2022/08/30 07:42:45;;;;;;;21.55;7.05;;;;;;;32.09;68.50;100002.00;5030715;28;20033;-69
2022/08/30 07:45:11;;;;;;;17.17;7.13;;;;;;;32.56;66.57;100063.06;5029577;28;20029;-73
2022/08/30 07:47:37;;;;;;;18.77;7.00;;;;;;;32.25;66.71;100010.53;5031169;28;20049;-69
2022/08/30 07:50:04;;;;;;;13.05;6.90;;;;;;;32.60;68.51;100066.97;5030489;28;20638;-68
2022/08/30 07:52:30;;;;;;;14.82;7.03;;;;;;;31.65;67.28;100022.09;5030516;28;20090;-68
2022/08/30 07:54:56;;;;;;;18.75;7.38;;;;;;;32.46;65.13;100046.72;5030959;28;20455;-68
2022/08/30 07:57:23;;;;;;;12.68;6.82;;;;;;;32.69;62.62;100050.03;5028939;28;20063;-68
2022/08/30 07:59:49;;;;;;;21.33;6.93;;;;;;;32.23;61.49;100056.44;5030716;28;20030;-68
2022/08/30 08:02:14;;;;;;;14.57;6.82;;;;;;;33.08;62.04;100044.50;5030494;28;20033;-69
2022/08/30 08:04:39;;;;;;;17.63;6.95;;;;;;;32.78;60.97;100030.53;5030884;28;20029;-71
2022/08/30 08:07:05;;;;;;;14.18;6.60;;;;;;;32.52;60.87;100047.78;5030822;28;20033;-68
2022/08/30 08:09:30;;;;;;;15.75;7.10;;;;;;;32.32;61.59;100050.94;5030496;28;20037;-68
2022/08/30 08:11:56;;;;;;;18.42;6.95;;;;;;;32.70;60.28;100035.88;5030540;28;20175;-69
2022/08/30 08:14:22;;;;;;;13.15;6.65;;;;;;;32.19;61.91;99994.66;5029207;28;20025;-68
2022/08/30 08:16:48;;;;;;;12.27;7.28;;;;;;;32.50;59.92;100005.00;5030801;28;20040;-70
2022/08/30 08:19:13;;;;;;;18.05;7.45;;;;;;;32.82;59.66;100008.06;5030617;28;20033;-70
2022/08/30 08:21:39;;;;;;;12.13;7.00;;;;;;;32.61;56.45;100013.25;5031040;28;20087;-68
2022/08/30 08:24:05;;;;;;;15.98;6.40;;;;;;;32.73;58.71;100032.03;5028903;28;20044;-68
2022/08/30 08:26:35;;;;;;;12.75;6.45;;;;;;;33.40;54.67;100024.75;5030329;28;20033;-68
2022/08/30 08:29:00;;;;;;;14.10;6.28;;;;;;;33.11;53.85;100030.91;5030335;28;20033;-68
2022/08/30 08:31:27;;;;;;;14.65;6.38;;;;;;;33.57;52.70;100024.31;5028924;28;20120;-68
2022/08/30 08:33:54;;;;;;;14.90;6.30;;;;;;;33.62;53.41;100024.56;5032857;28;20044;-68
2022/08/30 08:36:19;;;;;;;13.02;6.50;;;;;;;34.32;49.32;100006.00;5033038;28;20031;-69
2022/08/30 08:38:45;;;;;;;14.23;6.18;;;;;;;34.05;50.06;100023.50;5033498;28;20116;-69
2022/08/30 08:41:26;;;;;;;19.55;6.15;;;;;;;33.21;50.87;99984.81;5034159;28;20021;-68
2022/08/30 08:43:51;;;;;;;10.60;5.43;;;;;;;33.59;49.99;99998.56;5032984;28;20046;-69
2022/08/30 08:46:42;;;;;;;12.90;6.15;;;;;;;33.85;48.62;100027.78;5034797;28;20116;-69
2022/08/30 08:49:07;;;;;;;13.40;6.18;;;;;;;33.42;50.03;99983.97;5034344;28;20103;-69
2022/08/30 08:54:27;;;;;;;13.88;6.57;;;;;;;33.80;49.91;100010.91;5033895;28;20498;-71
2022/08/30 08:56:53;;;;;;;14.02;6.40;;;;;;;34.51;46.65;100015.88;5032756;28;20037;-69
2022/08/30 08:59:19;;;;;;;17.83;9.48;;;;;;;33.45;49.15;100011.78;5033676;28;20450;-69
2022/08/30 09:01:46;;;;;;;14.52;7.40;;;;;;;33.37;49.29;100004.81;5032482;28;20059;-69
2022/08/30 09:04:16;;;;;;;10.48;6.45;;;;;;;34.67;47.41;100002.34;5032419;28;20029;-69
2022/08/30 09:07:04;;;;;;;14.87;5.97;;;;;;;33.84;47.12;99994.50;5033646;28;20030;-69
2022/08/30 09:09:38;;;;;;;13.57;6.10;;;;;;;33.83;49.61;100008.69;5033934;28;20306;-69
2022/08/30 09:12:06;;;;;;;18.27;6.40;;;;;;;33.55;46.49;99984.13;5032038;28;20035;-69
2022/08/30 09:14:35;;;;;;;13.85;5.90;;;;;;;34.29;46.07;99992.38;5033496;28;20026;-73
2022/08/30 09:17:01;;;;;;;14.55;6.22;;;;;;;34.49;45.59;100004.69;5033612;28;20025;-70
2022/08/30 09:19:28;;;;;;;13.73;5.95;;;;;;;33.96;45.35;100000.06;5033835;28;20031;-67
2022/08/30 09:22:25;;;;;;;14.05;5.93;;;;;;;34.87;44.05;99957.47;5033416;28;20260;-72
2022/08/30 09:24:58;;;;;;;14.93;6.30;;;;;;;34.33;46.37;99968.00;5033014;28;20385;-70
2022/08/30 09:27:31;;;;;;;13.82;5.97;;;;;;;35.41;42.72;99962.66;5033227;28;20099;-69
2022/08/30 09:30:08;;;;;;;12.40;6.03;;;;;;;34.81;42.24;99963.53;5033156;28;20471;-69
2022/08/30 09:32:51;;;;;;;11.73;5.55;;;;;;;34.33;43.63;99970.66;5032201;28;20040;-69
2022/08/30 09:35:33;;;;;;;13.57;5.80;;;;;;;34.13;44.29;99984.78;5033500;28;20036;-71
2022/08/30 09:38:22;;;;;;;12.02;5.80;;;;;;;34.26;42.20;99975.09;5032387;28;20412;-70
2022/08/30 09:40:54;;;;;;;16.88;5.43;;;;;;;34.74;40.67;99946.88;5033488;28;20029;-68
2022/08/30 09:43:26;;;;;;;16.05;5.15;;;;;;;34.28;39.69;99937.91;5033045;28;20037;-72
2022/08/30 09:46:12;;;;;;;12.48;5.00;;;;;;;34.03;38.45;99964.78;5030751;28;20085;-70
2022/08/30 09:48:43;;;;;;;14.80;4.82;;;;;;;34.28;40.37;99938.72;5032944;28;20038;-69
2022/08/30 09:51:14;;;;;;;;;;;;;;;34.49;40.85;99969.53;5033712;28;20413;-70
2022/08/30 09:54:00;;;;;;;11.40;5.20;;;;;;;35.19;38.50;99969.97;5032925;28;20011;-71
2022/08/30 09:56:40;;;;;;;9.52;4.80;;;;;;;35.42;38.23;99924.59;5032634;28;20112;-69
2022/08/30 09:59:14;;;;;;;11.77;4.70;;;;;;;35.10;37.71;99965.88;5033151;28;20037;-71
2022/08/30 10:01:48;;;;;;;14.73;5.10;;;;;;;35.56;38.40;99953.53;5032884;28;20034;-69
2022/08/30 10:04:35;;;;;;;16.52;4.82;;;;;;;34.83;38.79;99912.13;5032698;28;20030;-69
2022/08/30 10:07:32;;;;;;;16.02;5.28;;;;;;;34.76;39.12;99943.03;5032582;28;20108;-69
2022/08/30 10:10:23;;;;;;;13.70;5.13;;;;;;;35.77;39.75;99923.38;5030878;28;20079;-69
2022/08/30 10:12:53;;;;;;;12.88;4.88;;;;;;;35.33;37.32;99939.88;5032978;28;20037;-70
2022/08/30 10:15:31;;;;;;;11.35;5.07;;;;;;;35.62;37.78;99942.13;5032306;28;20026;-69
2022/08/30 10:18:29;;;;;;;13.70;4.70;;;;;;;35.94;38.27;99937.00;5031179;28;20041;-69
2022/08/30 10:21:03;;;;;;;15.00;5.00;;;;;;;35.82;37.33;99941.25;5032475;28;20040;-70
2022/08/30 10:23:37;;;;;;;15.27;5.30;;;;;;;34.65;38.11;99903.94;5032164;28;20087;-69
2022/08/30 10:26:16;;;;;;;12.48;5.00;;;;;;;35.40;36.17;99930.09;5031097;28;20044;-69
2022/08/30 10:28:53;;;;;;;11.50;4.72;;;;;;;35.50;36.31;99908.53;5032464;28;20201;-70
2022/08/30 10:31:35;;;;;;;13.55;6.22;;;;;;;36.39;37.36;99885.66;5032220;28;20034;-68
2022/08/30 10:34:13;;;;;;;12.43;5.30;;;;;;;35.29;38.02;99914.00;5032493;28;20048;-68
2022/08/30 10:36:56;;;;;;;14.07;5.75;;;;;;;36.45;37.70;99919.31;5030932;28;20473;-68
2022/08/30 10:39:25;;;;;;;11.65;5.65;;;;;;;35.71;37.15;99917.06;5032548;28;20029;-68
2022/08/30 10:42:40;;;;;;;18.60;7.00;;;;;;;35.59;38.36;99926.66;5031994;28;20034;-68
2022/08/30 10:45:14;;;;;;;14.07;6.13;;;;;;;36.02;38.38;99891.75;5022669;28;20096;-70
2022/08/30 10:48:01;;;;;;;14.80;5.72;;;;;;;35.43;37.90;99900.59;5031960;28;20136;-69
2022/08/30 10:50:48;;;;;;;9.13;5.55;;;;;;;37.13;37.87;99904.44;5031281;28;20511;-69
2022/08/30 10:53:37;;;;;;;12.88;6.18;;;;;;;36.38;37.81;99911.38;5030229;28;20108;-71
2022/08/30 10:56:05;;;;;;;14.40;5.60;;;;;;;34.60;39.12;99911.66;5031400;28;20033;-68
2022/08/30 10:58:31;;;;;;;12.85;5.32;;;;;;;35.37;38.51;99898.75;5030165;28;20025;-69
2022/08/30 11:01:14;;;;;;;10.02;5.20;;;;;;;34.94;37.71;99861.28;5029865;28;20029;-69
2022/08/30 11:04:09;;;;;;;13.63;5.70;;;;;;;34.32;39.00;99899.53;5031642;28;20025;-68
2022/08/30 11:06:46;;;;;;;14.88;5.47;;;;;;;35.27;38.12;99906.28;5031694;28;20033;-68
2022/08/30 11:09:23;;;;;;;7.82;4.97;;;;;;;35.58;37.89;99903.84;5031382;28;20052;-69
2022/08/30 11:12:14;;;;;;;12.77;5.50;;;;;;;34.60;38.31;99898.44;5031812;28;20132;-69
2022/08/30 11:14:42;;;;;;;9.83;5.90;;;;;;;34.69;38.94;99860.25;5031594;28;20090;-68
2022/08/30 11:17:45;;;;;;;12.27;6.10;;;;;;;35.94;37.48;99891.97;5031691;28;20049;-69
2022/08/30 11:20:42;;;;;;;8.07;5.20;;;;;;;34.25;39.21;99867.00;5031252;28;20029;-70
2022/08/30 11:23:29;;;;;;;9.95;5.40;;;;;;;33.92;40.72;99885.28;5030920;28;20048;-69
2022/08/30 11:26:11;;;;;;;14.75;5.65;;;;;;;33.56;39.92;99845.91;5031081;28;20041;-69
2022/08/30 11:28:37;;;;;;;15.15;5.88;;;;;;;34.41;40.71;99880.66;5029807;28;20491;-69
2022/08/30 11:31:02;;;;;;;11.50;5.60;;;;;;;35.84;38.35;99876.50;5031049;28;20026;-70
2022/08/30 11:33:40;;;;;;;8.13;4.80;;;;;;;35.82;38.32;99875.06;5031121;28;20028;-70